Time;durP1;ratioP1;P1;durP2;ratioP2;P2;SDS_P1;SDS_P2;PMS_P1;PMS_P2;Temp;Humidity;BMP_temperature;BMP_pressure;BME280_temperature;BME280_humidity;BME280_pressure;Samples;Min_cycle;Max_cycle;Signal;HPM_P1;HPM_P2
2021/04/02 00:01:42;;;;;;;6.07;1.73;;;4.10;99.40;;;;;;4945595;29;20054;-90
2021/04/02 00:04:08;;;;;;;8.20;2.08;;;4.10;99.20;;;;;;4943821;29;20488;-91
2021/04/02 00:06:33;;;;;;;5.75;2.10;;;4.10;99.20;;;;;;4945040;29;20473;-90
2021/04/02 00:08:59;;;;;;;3.42;1.58;;;4.20;99.20;;;;;;4941856;29;20027;-90
2021/04/02 00:11:25;;;;;;;5.55;1.80;;;4.20;99.40;;;;;;4941232;29;20527;-90
2021/04/02 00:13:52;;;;;;;6.10;1.88;;;4.20;99.10;;;;;;4940614;29;20023;-91
2021/04/02 00:16:20;;;;;;;7.20;1.83;;;4.20;99.20;;;;;;4940714;29;20038;-90
2021/04/02 00:18:47;;;;;;;7.68;2.10;;;4.20;99.20;;;;;;4940984;29;20046;-90
2021/04/02 00:21:14;;;;;;;7.28;2.75;;;4.20;99.40;;;;;;4940915;29;20023;-91
2021/04/02 00:23:41;;;;;;;7.10;1.90;;;4.20;99.40;;;;;;4940030;29;20560;-90
2021/04/02 00:26:11;;;;;;;7.15;2.17;;;4.30;99.70;;;;;;4939679;29;20054;-90
2021/04/02 00:28:36;;;;;;;4.95;1.48;;;4.30;99.40;;;;;;4940144;29;20031;-91
2021/04/02 00:31:03;;;;;;;11.10;2.95;;;4.30;99.20;;;;;;4943780;29;20105;-91
2021/04/02 00:33:31;;;;;;;4.63;1.55;;;4.30;99.30;;;;;;4944120;29;20539;-90
2021/04/02 00:35:58;;;;;;;4.07;1.20;;;4.30;99.50;;;;;;4943885;29;20114;-90
2021/04/02 00:38:24;;;;;;;9.45;1.70;;;4.30;99.60;;;;;;4943117;29;20050;-91
2021/04/02 00:40:53;;;;;;;7.28;1.55;;;4.30;99.60;;;;;;4943221;29;20027;-91
2021/04/02 00:43:40;;;;;;;2.25;1.50;;;4.40;99.40;;;;;;4943822;29;20078;-91
2021/04/02 00:46:08;;;;;;;6.95;1.40;;;4.40;99.30;;;;;;4941776;29;20051;-90
2021/04/02 00:48:35;;;;;;;3.97;1.00;;;4.40;99.30;;;;;;4951053;29;20047;-90
2021/04/02 00:51:09;;;;;;;8.45;1.80;;;4.40;99.20;;;;;;4957854;29;20043;-90
2021/04/02 00:53:39;;;;;;;7.88;1.38;;;4.40;99.30;;;;;;4944076;29;20094;-90
2021/04/02 00:56:06;;;;;;;2.25;1.30;;;4.40;99.40;;;;;;4943942;29;20035;-89
2021/04/02 00:58:35;;;;;;;1.42;0.93;;;4.40;99.30;;;;;;4943906;29;20063;-90
2021/04/02 01:01:02;;;;;;;11.98;1.58;;;4.40;99.20;;;;;;4944619;29;20030;-90
2021/04/02 01:03:27;;;;;;;2.42;1.30;;;4.40;99.20;;;;;;4964564;29;20038;-90
2021/04/02 01:05:55;;;;;;;5.90;1.23;;;4.40;99.00;;;;;;4948216;29;20411;-91
2021/04/02 01:08:24;;;;;;;5.28;1.30;;;4.40;98.90;;;;;;4958029;29;20046;-90
2021/04/02 01:10:53;;;;;;;4.13;1.48;;;4.40;98.90;;;;;;4959763;29;20057;-91
2021/04/02 01:13:43;;;;;;;2.33;0.98;;;4.40;99.00;;;;;;4945585;29;20048;-90
2021/04/02 01:16:21;;;;;;;7.03;1.85;;;4.40;99.10;;;;;;4945664;29;20020;-90
2021/04/02 01:18:49;;;;;;;5.07;1.38;;;4.40;99.10;;;;;;4944418;29;20067;-90
2021/04/02 01:21:28;;;;;;;8.48;2.10;;;4.40;99.10;;;;;;4943694;29;20129;-91
2021/04/02 01:24:20;;;;;;;5.32;3.00;;;4.40;99.00;;;;;;4943928;29;20523;-90
2021/04/02 01:26:49;;;;;;;6.95;2.00;;;4.40;98.80;;;;;;4944766;29;20034;-90
2021/04/02 01:29:16;;;;;;;9.98;1.58;;;4.40;98.80;;;;;;4943968;29;20066;-90
2021/04/02 01:31:49;;;;;;;5.93;1.95;;;4.30;98.80;;;;;;4944503;29;20058;-90
2021/04/02 01:34:19;;;;;;;10.05;1.80;;;4.30;98.90;;;;;;4961514;29;20058;-91
2021/04/02 01:36:45;;;;;;;;;;;4.40;99.00;;;;;;4943808;29;20031;-91
2021/04/02 01:39:13;;;;;;;8.32;1.60;;;4.40;98.90;;;;;;4943215;29;20375;-90
2021/04/02 01:41:44;;;;;;;7.38;2.40;;;4.30;98.80;;;;;;4943817;29;20031;-90
2021/04/02 01:44:10;;;;;;;3.95;1.25;;;4.30;98.80;;;;;;4961059;29;20030;-90
2021/04/02 01:46:37;;;;;;;11.68;4.03;;;4.30;99.00;;;;;;4942953;29;20166;-90
2021/04/02 01:49:05;;;;;;;5.57;1.67;;;4.30;99.10;;;;;;4942813;29;20023;-90
2021/04/02 01:51:32;;;;;;;2.70;1.50;;;4.40;99.10;;;;;;4943096;29;20063;-90
2021/04/02 01:53:59;;;;;;;6.68;1.55;;;4.40;99.30;;;;;;4942442;29;20027;-92
2021/04/02 01:56:27;;;;;;;3.70;1.45;;;4.40;99.30;;;;;;4942012;29;20142;-89
2021/04/02 01:58:55;;;;;;;4.18;1.70;;;4.40;99.20;;;;;;4941984;29;20046;-90
2021/04/02 02:01:24;;;;;;;6.40;1.50;;;4.40;99.20;;;;;;4959380;29;20019;-90
2021/04/02 02:03:54;;;;;;;7.38;2.05;;;4.40;99.30;;;;;;4941702;29;20024;-90
2021/04/02 02:06:23;;;;;;;5.63;1.80;;;4.40;99.40;;;;;;4942149;29;20031;-90
2021/04/02 02:08:51;;;;;;;4.18;2.08;;;4.40;99.50;;;;;;4959049;29;20038;-90
2021/04/02 02:11:18;;;;;;;5.35;1.83;;;4.40;99.60;;;;;;4941693;29;20078;-90
2021/04/02 02:13:50;;;;;;;7.55;2.17;;;4.40;99.70;;;;;;4941715;29;20051;-90
2021/04/02 02:16:17;;;;;;;4.82;1.83;;;4.40;99.70;;;;;;4959218;29;20054;-90
2021/04/02 02:18:44;;;;;;;7.85;2.63;;;4.50;99.80;;;;;;4942338;29;20110;-90
2021/04/02 02:21:14;;;;;;;7.28;2.55;;;4.50;99.80;;;;;;4943059;29;20035;-90
2021/04/02 02:23:42;;;;;;;8.82;2.10;;;4.40;99.80;;;;;;4941834;29;20034;-90
2021/04/02 02:26:08;;;;;;;9.63;2.78;;;4.40;99.90;;;;;;4940842;29;20051;-90
2021/04/02 02:28:34;;;;;;;9.48;3.55;;;4.40;99.90;;;;;;4940939;29;20046;-91
2021/04/02 02:31:01;;;;;;;6.47;3.28;;;4.50;99.90;;;;;;4941713;29;20114;-89
2021/04/02 02:33:27;;;;;;;9.50;2.97;;;4.50;99.90;;;;;;4941719;29;20023;-90
2021/04/02 02:35:53;;;;;;;6.72;3.47;;;4.40;99.90;;;;;;4940853;29;20027;-90
2021/04/02 02:38:20;;;;;;;5.28;3.33;;;4.40;99.90;;;;;;4941133;29;20065;-90
2021/04/02 02:40:46;;;;;;;10.32;2.15;;;4.40;99.90;;;;;;4941880;29;20122;-91
2021/04/02 02:43:15;;;;;;;8.30;2.55;;;4.40;99.90;;;;;;4947797;29;20035;-89
2021/04/02 02:45:41;;;;;;;6.20;2.08;;;4.50;99.90;;;;;;4948814;29;20023;-90
2021/04/02 02:48:08;;;;;;;9.98;2.53;;;4.50;99.90;;;;;;4946134;29;20505;-90
2021/04/02 02:50:36;;;;;;;7.80;1.95;;;4.40;99.90;;;;;;4945454;29;20027;-90
2021/04/02 02:53:03;;;;;;;3.40;1.60;;;4.40;99.90;;;;;;4941055;29;20028;-90
2021/04/02 02:55:31;;;;;;;7.40;1.85;;;4.40;99.90;;;;;;4941858;29;20108;-91
2021/04/02 02:58:00;;;;;;;3.78;1.42;;;4.40;99.90;;;;;;4941584;29;20039;-90
2021/04/02 03:00:34;;;;;;;5.88;1.80;;;4.40;99.90;;;;;;4940807;29;20027;-90
2021/04/02 03:03:02;;;;;;;5.03;1.50;;;4.40;99.90;;;;;;4940756;29;20036;-90
2021/04/02 03:05:28;;;;;;;4.95;1.67;;;4.40;99.90;;;;;;4924765;29;20074;-90
2021/04/02 03:07:58;;;;;;;2.92;1.40;;;4.40;99.90;;;;;;4957267;29;20028;-90
2021/04/02 03:10:25;;;;;;;11.38;2.83;;;4.40;99.90;;;;;;4940304;29;20055;-90
2021/04/02 03:12:53;;;;;;;5.63;1.90;;;4.40;99.90;;;;;;4957239;29;20033;-90
2021/04/02 03:15:20;;;;;;;4.22;1.70;;;4.40;99.90;;;;;;4940463;29;20058;-90
2021/04/02 03:18:09;;;;;;;3.60;1.70;;;4.40;99.90;;;;;;4940352;29;20048;-91
2021/04/02 03:20:37;;;;;;;4.13;1.40;;;4.50;99.90;;;;;;4939423;29;20039;-91
2021/04/02 03:23:05;;;;;;;8.98;1.50;;;4.40;99.90;;;;;;4957608;29;20030;-90
2021/04/02 03:25:33;;;;;;;6.88;1.50;;;4.40;99.90;;;;;;4939896;29;20391;-90
2021/04/02 03:28:00;;;;;;;7.85;1.75;;;4.50;99.90;;;;;;4940288;29;20396;-90
2021/04/02 03:30:28;;;;;;;6.25;2.30;;;4.50;99.90;;;;;;4957183;29;20023;-90
2021/04/02 03:33:18;;;;;;;6.45;2.17;;;4.40;99.90;;;;;;4956668;29;20492;-90
2021/04/02 03:35:45;;;;;;;3.00;1.30;;;4.50;99.90;;;;;;4939764;29;20469;-90
2021/04/02 03:38:13;;;;;;;6.57;1.88;;;4.50;99.90;;;;;;4939474;29;20039;-90
2021/04/02 03:40:40;;;;;;;3.53;1.52;;;4.40;99.90;;;;;;4939601;29;20381;-90
2021/04/02 03:43:06;;;;;;;4.47;1.50;;;4.40;99.90;;;;;;4940353;29;20488;-90
2021/04/02 03:45:34;;;;;;;6.78;1.90;;;4.40;99.90;;;;;;4939933;29;20077;-89
2021/04/02 03:48:02;;;;;;;7.00;1.90;;;4.40;99.90;;;;;;4939678;29;20027;-90
2021/04/02 03:50:32;;;;;;;4.10;1.85;;;4.40;99.90;;;;;;4939581;29;20059;-89
2021/04/02 03:53:09;;;;;;;5.40;1.83;;;4.40;99.90;;;;;;4939434;29;20023;-89
2021/04/02 03:55:41;;;;;;;6.30;1.63;;;4.40;99.90;;;;;;4939827;29;20027;-91
2021/04/02 03:58:09;;;;;;;8.35;1.60;;;4.40;99.90;;;;;;4939349;29;20126;-90
2021/04/02 04:01:09;;;;;;;4.68;1.48;;;4.40;99.90;;;;;;4938996;29;20031;-89
2021/04/02 04:03:37;;;;;;;9.85;2.00;;;4.40;99.90;;;;;;4934502;29;20039;-90
2021/04/02 04:06:06;;;;;;;5.22;1.70;;;4.40;99.90;;;;;;4939101;29;20030;-90
2021/04/02 04:08:33;;;;;;;2.95;1.60;;;4.40;99.90;;;;;;4956153;29;20472;-90
2021/04/02 04:11:01;;;;;;;10.63;2.20;;;4.40;99.90;;;;;;4938964;29;20406;-88
2021/04/02 04:13:29;;;;;;;5.20;1.90;;;4.40;99.90;;;;;;4939267;29;20133;-89
2021/04/02 04:15:55;;;;;;;7.32;1.70;;;4.40;99.90;;;;;;4939552;29;20031;-89
2021/04/02 04:18:22;;;;;;;5.82;1.75;;;4.40;99.90;;;;;;4940045;29;20035;-91
2021/04/02 04:20:53;;;;;;;5.10;1.67;;;4.30;99.90;;;;;;4956251;29;20105;-89
2021/04/02 04:23:19;;;;;;;4.07;1.63;;;4.40;99.90;;;;;;4939809;29;20054;-88
2021/04/02 04:25:45;;;;;;;3.50;1.50;;;4.30;99.90;;;;;;4939855;29;20489;-90
2021/04/02 04:28:14;;;;;;;7.50;1.63;;;4.40;99.90;;;;;;4939586;29;20037;-90
2021/04/02 04:30:41;;;;;;;6.75;1.88;;;4.40;99.90;;;;;;4939824;29;20054;-89
2021/04/02 04:33:07;;;;;;;4.90;1.20;;;4.40;99.90;;;;;;4939461;29;20038;-88
2021/04/02 04:35:34;;;;;;;6.43;1.85;;;4.40;99.90;;;;;;4938873;29;20389;-90
2021/04/02 04:38:03;;;;;;;8.65;1.60;;;4.40;99.90;;;;;;4938679;29;20039;-88
2021/04/02 04:40:29;;;;;;;10.15;1.83;;;4.50;99.90;;;;;;4938578;29;20027;-88
2021/04/02 04:42:55;;;;;;;6.30;1.85;;;4.50;99.90;;;;;;4939347;29;20043;-89
2021/04/02 04:45:23;;;;;;;10.40;3.08;;;4.50;99.90;;;;;;4939960;29;20118;-90
2021/04/02 04:47:49;;;;;;;6.00;2.20;;;4.50;99.90;;;;;;4939949;29;20031;-89
2021/04/02 04:50:16;;;;;;;4.75;2.22;;;4.50;99.90;;;;;;4957849;29;20469;-89
2021/04/02 04:52:58;;;;;;;8.63;2.47;;;4.50;99.90;;;;;;4940289;29;20043;-89
2021/04/02 04:55:25;;;;;;;8.15;2.88;;;4.40;99.90;;;;;;4940904;29;20094;-91
2021/04/02 04:57:57;;;;;;;5.68;2.65;;;4.40;99.90;;;;;;4942568;29;20031;-90
2021/04/02 05:00:23;;;;;;;16.95;4.30;;;4.40;99.90;;;;;;4945271;29;20027;-90
2021/04/02 05:02:50;;;;;;;7.70;2.88;;;4.40;99.90;;;;;;4946477;29;20030;-90
2021/04/02 05:05:24;;;;;;;4.65;2.38;;;4.50;99.90;;;;;;4938983;29;20034;-90
2021/04/02 05:07:53;;;;;;;5.03;2.40;;;4.50;99.90;;;;;;4956057;29;20070;-90
2021/04/02 05:10:20;;;;;;;7.22;2.22;;;4.40;99.90;;;;;;4938994;29;20083;-90
2021/04/02 05:12:47;;;;;;;6.97;2.00;;;4.40;99.90;;;;;;4939216;29;20051;-89
2021/04/02 05:15:14;;;;;;;4.75;2.00;;;4.40;99.90;;;;;;4939960;29;20039;-90
2021/04/02 05:17:42;;;;;;;10.20;3.13;;;4.40;99.90;;;;;;4942984;29;20050;-89
2021/04/02 05:20:09;;;;;;;4.50;2.00;;;4.40;99.90;;;;;;4944074;29;20062;-88
2021/04/02 05:22:35;;;;;;;5.95;2.10;;;4.40;99.90;;;;;;4942954;29;20077;-89
2021/04/02 05:25:00;;;;;;;7.35;2.33;;;4.40;99.90;;;;;;4942783;29;20039;-89
2021/04/02 05:27:26;;;;;;;3.78;1.80;;;4.40;99.90;;;;;;4943601;29;20024;-90
2021/04/02 05:29:53;;;;;;;6.85;2.15;;;4.40;99.90;;;;;;4943304;29;20023;-90
2021/04/02 05:32:18;;;;;;;10.30;2.03;;;4.40;99.90;;;;;;4944495;29;20031;-90
2021/04/02 05:34:44;;;;;;;4.20;1.73;;;4.40;99.90;;;;;;4967787;29;20027;-90
2021/04/02 05:37:09;;;;;;;5.78;1.77;;;4.40;99.90;;;;;;4966827;29;20038;-89
2021/04/02 05:39:36;;;;;;;3.53;1.70;;;4.40;99.90;;;;;;4947204;29;20090;-91
2021/04/02 05:42:04;;;;;;;3.15;1.80;;;4.40;99.90;;;;;;4944649;29;20058;-90
2021/04/02 05:44:32;;;;;;;5.93;1.50;;;4.40;99.90;;;;;;4943656;29;20123;-88
2021/04/02 05:47:03;;;;;;;3.92;1.65;;;4.40;99.90;;;;;;4960973;29;20019;-91
2021/04/02 05:49:29;;;;;;;5.07;1.50;;;4.30;99.90;;;;;;4943999;29;20028;-90
2021/04/02 05:52:00;;;;;;;5.28;1.58;;;4.40;99.90;;;;;;4944474;29;20031;-90
2021/04/02 05:54:38;;;;;;;7.88;2.05;;;4.40;99.90;;;;;;4944430;29;20473;-90
2021/04/02 05:57:04;;;;;;;7.57;1.83;;;4.40;99.90;;;;;;4944148;29;20470;-90
2021/04/02 05:59:31;;;;;;;4.20;1.50;;;4.30;99.90;;;;;;4942922;29;20035;-90
2021/04/02 06:01:57;;;;;;;7.03;2.08;;;4.30;99.90;;;;;;4942761;29;20465;-90
2021/04/02 06:04:22;;;;;;;6.93;2.00;;;4.30;99.90;;;;;;4942700;29;20103;-90
2021/04/02 06:06:49;;;;;;;7.95;2.20;;;4.30;99.90;;;;;;4942100;29;20046;-89
2021/04/02 06:09:17;;;;;;;4.65;1.90;;;4.30;99.90;;;;;;4940983;29;20031;-88
2021/04/02 06:11:43;;;;;;;6.82;1.95;;;4.30;99.90;;;;;;4941216;29;20031;-89
2021/04/02 06:14:09;;;;;;;5.03;1.83;;;4.30;99.90;;;;;;4940872;29;20031;-90
2021/04/02 06:16:35;;;;;;;7.47;1.95;;;4.30;99.90;;;;;;4940922;29;20035;-91
2021/04/02 06:19:06;;;;;;;4.07;2.22;;;4.30;99.90;;;;;;4941082;29;20032;-89
2021/04/02 06:21:46;;;;;;;7.05;1.90;;;4.30;99.90;;;;;;4942291;29;20031;-89
2021/04/02 06:24:14;;;;;;;2.30;1.55;;;4.40;99.90;;;;;;4943022;29;20184;-89
2021/04/02 06:26:39;;;;;;;5.50;2.10;;;4.40;99.90;;;;;;4941206;29;20031;-89
2021/04/02 06:29:05;;;;;;;7.72;2.40;;;4.40;99.90;;;;;;4942243;29;20507;-90
2021/04/02 06:31:35;;;;;;;4.80;2.40;;;4.40;99.90;;;;;;4942183;29;20027;-90
2021/04/02 06:34:06;;;;;;;6.10;2.83;;;4.50;99.90;;;;;;4958038;29;20499;-90
2021/04/02 06:36:32;;;;;;;8.63;3.13;;;4.40;99.90;;;;;;4941603;29;20496;-90
2021/04/02 06:39:05;;;;;;;7.32;3.05;;;4.50;99.90;;;;;;4941404;29;20043;-91
2021/04/02 06:41:35;;;;;;;4.88;3.05;;;4.50;99.90;;;;;;4942181;29;20082;-90
2021/04/02 06:44:04;;;;;;;8.82;3.80;;;4.50;99.90;;;;;;4941457;29;20054;-89
2021/04/02 06:46:32;;;;;;;6.18;3.35;;;4.50;99.90;;;;;;4941738;29;20027;-90
2021/04/02 06:49:08;;;;;;;3.55;2.92;;;4.60;99.90;;;;;;4941100;29;20031;-88
2021/04/02 06:51:37;;;;;;;4.63;2.90;;;4.60;99.90;;;;;;4940435;29;20031;-89
2021/04/02 06:54:04;;;;;;;5.10;3.88;;;4.60;99.90;;;;;;4939993;29;20027;-88
2021/04/02 06:56:32;;;;;;;13.77;5.00;;;4.70;99.90;;;;;;4939850;29;20031;-90
2021/04/02 06:58:59;;;;;;;8.90;5.43;;;4.70;99.90;;;;;;4941636;29;20031;-90
2021/04/02 07:04:51;;;;;;;9.73;5.13;;;4.70;99.90;;;;;;4957177;29;20098;-90
2021/04/02 07:07:17;;;;;;;7.88;4.30;;;4.80;99.90;;;;;;4940217;29;20035;-89
2021/04/02 07:09:43;;;;;;;8.23;4.53;;;4.80;99.90;;;;;;4940775;29;20103;-91
2021/04/02 07:12:11;;;;;;;12.95;5.45;;;4.80;99.90;;;;;;4941679;29;20023;-90
2021/04/02 07:14:39;;;;;;;8.45;4.28;;;4.80;99.90;;;;;;4940676;29;20027;-90
2021/04/02 07:17:05;;;;;;;11.00;4.22;;;4.80;99.90;;;;;;4939786;29;20031;-90
2021/04/02 07:23:00;;;;;;;7.18;3.00;;;4.90;99.90;;;;;;4958331;29;20487;-90
2021/04/02 07:25:26;;;;;;;4.78;2.80;;;4.90;99.90;;;;;;4942150;29;20055;-90
2021/04/02 07:27:52;;;;;;;5.57;2.88;;;4.90;99.90;;;;;;4941522;29;20118;-88
2021/04/02 07:30:21;;;;;;;8.25;3.13;;;4.90;99.90;;;;;;4956985;29;20038;-90
2021/04/02 07:32:48;;;;;;;4.95;2.97;;;4.90;99.90;;;;;;4939952;29;20478;-90
2021/04/02 07:35:19;;;;;;;9.55;2.85;;;4.90;99.90;;;;;;4940789;29;20057;-92
2021/04/02 07:38:12;;;;;;;6.22;3.08;;;5.00;99.90;;;;;;4957887;28;20035;-91
2021/04/02 07:40:38;;;;;;;9.88;2.50;;;5.00;99.90;;;;;;4937171;29;20397;-92
2021/04/02 07:43:08;;;;;;;6.97;2.70;;;5.00;99.80;;;;;;4941892;29;20027;-89
2021/04/02 07:45:38;;;;;;;6.90;2.30;;;5.00;99.80;;;;;;4957149;29;20110;-90
2021/04/02 07:48:24;;;;;;;7.72;3.15;;;5.10;99.70;;;;;;4939304;29;20058;-89
2021/04/02 07:51:00;;;;;;;8.90;3.55;;;5.10;99.60;;;;;;4939189;29;20039;-90
2021/04/02 07:53:27;;;;;;;8.55;4.00;;;5.20;99.60;;;;;;4956471;29;20039;-89
2021/04/02 07:56:20;;;;;;;11.85;4.57;;;5.20;99.60;;;;;;4940546;29;20032;-90
2021/04/02 07:59:03;;;;;;;8.07;3.60;;;5.30;99.60;;;;;;4957152;29;20062;-91
2021/04/02 08:01:31;;;;;;;9.80;3.92;;;5.30;99.40;;;;;;4957312;29;20043;-90
2021/04/02 08:04:02;;;;;;;15.10;5.97;;;5.40;99.30;;;;;;4957757;29;20031;-90
2021/04/02 08:06:30;;;;;;;7.25;3.80;;;5.50;99.10;;;;;;4940717;29;20547;-90
2021/04/02 08:08:56;;;;;;;7.53;4.20;;;5.50;99.10;;;;;;4941399;29;20031;-91
2021/04/02 08:11:35;;;;;;;6.28;4.55;;;5.50;99.10;;;;;;4941934;29;20086;-91
2021/04/02 08:14:08;;;;;;;6.65;4.10;;;5.60;99.00;;;;;;4958290;29;20036;-91
2021/04/02 08:16:55;;;;;;;6.18;4.30;;;5.70;98.90;;;;;;4958096;29;20027;-90
2021/04/02 08:19:25;;;;;;;7.03;4.32;;;5.70;98.70;;;;;;4941946;29;20534;-91
2021/04/02 08:21:57;;;;;;;7.22;4.50;;;5.80;98.80;;;;;;4942030;29;20031;-92
2021/04/02 08:24:26;;;;;;;10.13;4.97;;;5.90;98.70;;;;;;4941842;29;20027;-93
2021/04/02 08:26:52;;;;;;;8.73;4.72;;;5.90;98.50;;;;;;4942657;29;20024;-91
2021/04/02 08:29:20;;;;;;;9.20;4.70;;;6.00;98.30;;;;;;4947498;29;20035;-90
2021/04/02 08:31:56;;;;;;;7.15;3.85;;;6.00;98.30;;;;;;4947273;29;20047;-91
2021/04/02 08:34:25;;;;;;;8.38;3.90;;;6.00;97.80;;;;;;4946945;29;20042;-91
2021/04/02 08:36:53;;;;;;;6.32;2.95;;;6.00;97.70;;;;;;4944275;29;20401;-90
2021/04/02 08:39:23;;;;;;;7.80;3.00;;;6.00;97.50;;;;;;4942827;29;20035;-90
2021/04/02 08:41:50;;;;;;;13.63;3.60;;;6.00;97.40;;;;;;4942453;29;20075;-90
2021/04/02 08:44:15;;;;;;;7.50;3.75;;;6.00;97.30;;;;;;4942280;29;20035;-91
2021/04/02 08:46:46;;;;;;;5.80;3.50;;;6.10;97.00;;;;;;4957611;29;20062;-92
2021/04/02 08:49:14;;;;;;;5.47;3.40;;;6.30;96.80;;;;;;4940802;28;20031;-90
2021/04/02 08:51:46;;;;;;;6.88;3.78;;;6.40;96.60;;;;;;4944392;29;20032;-90
2021/04/02 08:54:15;;;;;;;9.27;3.55;;;6.50;96.30;;;;;;4945420;29;20027;-91
2021/04/02 08:56:41;;;;;;;7.75;3.63;;;6.60;96.10;;;;;;4943963;29;20038;-91
2021/04/02 08:59:09;;;;;;;4.05;3.28;;;6.70;95.90;;;;;;4944421;29;20410;-89
2021/04/02 09:01:41;;;;;;;7.93;3.25;;;6.80;95.60;;;;;;4943800;29;20206;-91
2021/04/02 09:04:08;;;;;;;8.75;3.70;;;6.90;95.20;;;;;;4944364;29;20373;-90
2021/04/02 09:06:35;;;;;;;7.40;3.60;;;7.00;94.60;;;;;;4943317;29;20106;-90
2021/04/02 09:09:03;;;;;;;4.72;3.17;;;6.90;94.10;;;;;;4943402;29;20031;-90
2021/04/02 09:11:28;;;;;;;5.70;2.63;;;6.90;93.90;;;;;;4943259;29;20504;-90
2021/04/02 09:13:54;;;;;;;9.20;3.22;;;7.00;93.90;;;;;;4959922;29;20035;-92
2021/04/02 09:16:21;;;;;;;6.38;3.15;;;7.10;93.60;;;;;;4960037;29;20097;-91
2021/04/02 09:18:48;;;;;;;3.35;2.88;;;7.20;93.60;;;;;;4961460;29;20059;-91
2021/04/02 09:21:15;;;;;;;5.53;3.58;;;7.30;93.50;;;;;;4961723;29;20033;-90
2021/04/02 09:23:41;;;;;;;3.90;3.40;;;7.50;93.10;;;;;;4960699;29;20457;-91
2021/04/02 09:26:09;;;;;;;8.27;3.78;;;7.60;92.90;;;;;;4942973;29;20082;-89
2021/04/02 09:28:37;;;;;;;6.50;3.08;;;7.70;92.60;;;;;;4943443;29;20031;-91
2021/04/02 09:31:13;;;;;;;12.38;3.33;;;7.80;92.30;;;;;;4943185;29;20058;-91
2021/04/02 09:33:43;;;;;;;4.85;2.50;;;7.80;91.80;;;;;;4960220;29;20548;-91
2021/04/02 09:36:11;;;;;;;6.78;2.85;;;7.80;91.50;;;;;;4942259;29;20374;-89
2021/04/02 09:38:36;;;;;;;7.43;3.10;;;7.90;91.50;;;;;;4942120;29;20446;-89
2021/04/02 09:41:02;;;;;;;8.32;2.38;;;8.00;91.70;;;;;;4943171;29;20027;-91
2021/04/02 09:43:54;;;;;;;9.10;3.97;;;8.10;91.20;;;;;;4959716;29;20110;-89
2021/04/02 09:46:35;;;;;;;8.68;3.25;;;8.20;90.90;;;;;;4942149;29;20031;-90
2021/04/02 09:49:05;;;;;;;7.05;3.67;;;8.20;90.70;;;;;;4960329;29;20380;-91
2021/04/02 09:51:33;;;;;;;8.77;3.72;;;8.20;90.40;;;;;;4942901;29;20436;-91
2021/04/02 09:54:00;;;;;;;8.50;3.83;;;8.30;90.00;;;;;;4959628;29;20480;-91
2021/04/02 09:56:25;;;;;;;7.43;3.97;;;8.30;89.90;;;;;;4944025;29;20054;-92
2021/04/02 09:58:51;;;;;;;6.32;3.70;;;8.30;89.20;;;;;;4943561;29;20126;-91
2021/04/02 10:01:17;;;;;;;6.30;3.50;;;8.20;89.10;;;;;;4959585;28;20468;-91
2021/04/02 10:03:42;;;;;;;7.70;3.75;;;8.20;89.40;;;;;;4942507;29;20031;-90
2021/04/02 10:06:08;;;;;;;13.23;3.80;;;8.20;89.20;;;;;;4942096;29;20019;-91
2021/04/02 10:08:34;;;;;;;6.15;3.40;;;8.30;89.50;;;;;;4959565;29;20432;-89
2021/04/02 10:10:59;;;;;;;7.80;3.20;;;8.40;88.30;;;;;;4958945;29;20382;-87
2021/04/02 10:13:25;;;;;;;4.60;2.60;;;8.60;87.70;;;;;;4941637;29;20059;-89
2021/04/02 10:15:53;;;;;;;9.95;3.25;;;8.80;87.40;;;;;;4941591;29;20370;-90
2021/04/02 10:18:20;;;;;;;6.72;2.70;;;9.20;86.60;;;;;;4942645;29;20046;-90
2021/04/02 10:20:46;;;;;;;9.57;3.00;;;9.60;86.00;;;;;;4943521;29;20023;-91
2021/04/02 10:23:12;;;;;;;4.72;2.50;;;10.00;85.50;;;;;;4944722;29;20026;-90
2021/04/02 10:25:38;;;;;;;7.82;3.15;;;10.20;84.00;;;;;;4944236;29;20031;-91
2021/04/02 10:28:05;;;;;;;11.07;3.15;;;10.40;83.10;;;;;;4944178;29;20061;-93
2021/04/02 10:30:31;;;;;;;5.78;2.92;;;10.70;82.40;;;;;;4943721;29;20073;-92
2021/04/02 10:32:57;;;;;;;5.80;3.10;;;11.00;81.40;;;;;;4961010;29;20032;-91
2021/04/02 10:35:22;;;;;;;5.15;2.90;;;11.00;80.00;;;;;;4942753;29;20027;-91
2021/04/02 10:37:48;;;;;;;8.18;3.03;;;11.00;79.60;;;;;;4943368;29;20066;-92
2021/04/02 10:40:15;;;;;;;4.60;2.85;;;11.00;79.60;;;;;;4961876;29;20047;-92
2021/04/02 10:42:40;;;;;;;6.47;3.10;;;11.00;79.00;;;;;;4929671;29;20119;-94
2021/04/02 10:45:07;;;;;;;6.68;3.10;;;11.10;79.00;;;;;;4942234;29;20110;-88
2021/04/02 10:47:32;;;;;;;8.82;2.83;;;11.10;78.50;;;;;;4940061;29;20023;-89
2021/04/02 10:49:58;;;;;;;7.50;3.50;;;11.20;78.70;;;;;;4957775;29;20027;-88
2021/04/02 10:52:23;;;;;;;4.50;2.97;;;11.30;78.20;;;;;;4957807;29;20432;-88
2021/04/02 10:54:49;;;;;;;6.45;2.67;;;11.20;77.70;;;;;;4940702;29;20110;-89
2021/04/02 10:57:15;;;;;;;4.38;2.45;;;11.30;77.70;;;;;;4939931;29;20129;-87
2021/04/02 10:59:42;;;;;;;8.82;2.65;;;11.30;77.80;;;;;;4940645;29;20031;-91
2021/04/02 11:02:10;;;;;;;4.65;2.50;;;11.50;77.40;;;;;;4941735;29;20042;-91
2021/04/02 11:04:35;;;;;;;9.57;3.03;;;11.60;77.40;;;;;;4958474;29;20083;-90
2021/04/02 11:07:01;;;;;;;4.80;2.30;;;11.70;76.70;;;;;;4958497;29;20055;-89
2021/04/02 11:09:27;;;;;;;5.40;2.63;;;12.00;76.30;;;;;;4957384;29;20023;-89
2021/04/02 11:11:55;;;;;;;4.63;2.40;;;12.20;76.10;;;;;;4958385;29;20071;-92
2021/04/02 11:14:20;;;;;;;7.45;2.90;;;12.30;74.70;;;;;;4943589;29;20434;-91
2021/04/02 11:16:46;;;;;;;7.85;3.55;;;12.40;73.90;;;;;;4965278;29;20042;-91
2021/04/02 11:19:11;;;;;;;7.57;3.10;;;12.60;73.30;;;;;;4947857;29;20075;-92
2021/04/02 11:21:37;;;;;;;7.32;3.15;;;12.70;73.00;;;;;;4963158;29;20106;-91
2021/04/02 11:24:03;;;;;;;6.43;2.88;;;12.90;72.20;;;;;;4944868;29;20027;-92
2021/04/02 11:26:29;;;;;;;6.55;3.05;;;12.90;71.50;;;;;;4961862;29;20047;-93
2021/04/02 11:28:54;;;;;;;7.10;4.05;;;13.00;71.20;;;;;;4961880;29;20039;-91
2021/04/02 11:31:21;;;;;;;6.55;3.05;;;13.20;70.90;;;;;;4959501;29;20039;-91
2021/04/02 11:33:47;;;;;;;9.98;2.97;;;13.20;70.80;;;;;;4960485;29;20115;-91
2021/04/02 11:36:13;;;;;;;3.08;2.10;;;13.00;70.20;;;;;;4961011;29;20059;-91
2021/04/02 11:38:38;;;;;;;6.53;2.10;;;13.00;70.20;;;;;;4960426;29;20039;-90
2021/04/02 11:41:05;;;;;;;7.60;1.95;;;13.00;70.10;;;;;;4941687;29;20038;-89
2021/04/02 11:43:30;;;;;;;7.68;1.88;;;12.80;70.00;;;;;;4941269;29;20476;-89
2021/04/02 11:45:56;;;;;;;4.95;1.98;;;12.60;69.70;;;;;;4959001;29;20059;-89
2021/04/02 11:48:22;;;;;;;4.70;2.10;;;12.40;70.20;;;;;;4958118;29;20380;-90
2021/04/02 11:50:47;;;;;;;5.25;2.47;;;12.30;70.80;;;;;;4939590;29;20039;-89
2021/04/02 11:53:13;;;;;;;6.75;2.67;;;12.20;71.00;;;;;;4958893;29;20477;-91
2021/04/02 11:55:39;;;;;;;8.95;2.00;;;12.10;71.10;;;;;;4957041;29;20031;-88
2021/04/02 11:58:05;;;;;;;7.38;2.15;;;12.20;71.30;;;;;;4957485;29;20508;-89
2021/04/02 12:00:30;;;;;;;8.05;2.75;;;12.50;71.50;;;;;;4956657;29;20034;-87
2021/04/02 12:02:56;;;;;;;4.30;2.03;;;12.70;71.30;;;;;;4956456;29;20466;-91
2021/04/02 12:05:25;;;;;;;3.15;1.52;;;12.80;70.20;;;;;;4956896;29;20029;-90
2021/04/02 12:07:52;;;;;;;3.30;2.00;;;12.90;70.20;;;;;;4957417;29;20038;-90
2021/04/02 12:10:18;;;;;;;7.53;2.10;;;12.90;69.50;;;;;;4957991;29;20051;-90
2021/04/02 12:12:44;;;;;;;5.47;2.00;;;12.90;69.40;;;;;;4958335;29;20039;-89
2021/04/02 12:15:11;;;;;;;4.78;2.10;;;12.90;69.20;;;;;;4959348;29;20027;-91
2021/04/02 12:17:36;;;;;;;5.45;1.95;;;13.10;69.30;;;;;;4957932;29;20027;-89
2021/04/02 12:20:14;;;;;;;11.95;3.92;;;13.40;68.70;;;;;;4941030;29;20043;-89
2021/04/02 12:22:41;;;;;;;15.05;4.32;;;13.70;68.30;;;;;;4957343;28;20047;-90
2021/04/02 12:25:09;;;;;;;8.02;2.00;;;14.10;67.50;;;;;;4959484;28;20140;-89
2021/04/02 12:27:34;;;;;;;5.68;1.83;;;14.20;66.60;;;;;;4945682;29;20357;-89
2021/04/02 12:30:00;;;;;;;7.22;2.10;;;14.40;66.10;;;;;;4963019;29;20030;-89
2021/04/02 12:32:26;;;;;;;7.90;1.80;;;14.50;65.70;;;;;;4945304;29;20027;-90
2021/04/02 12:34:51;;;;;;;6.43;2.60;;;14.70;65.40;;;;;;4962564;29;20034;-90
2021/04/02 12:37:17;;;;;;;3.78;1.65;;;14.70;64.70;;;;;;4961949;29;20039;-90
2021/04/02 12:39:43;;;;;;;7.32;2.05;;;14.90;65.10;;;;;;4960435;29;20130;-89
2021/04/02 12:42:09;;;;;;;7.70;1.85;;;15.00;63.40;;;;;;4961852;29;20030;-90
2021/04/02 12:44:36;;;;;;;8.70;3.05;;;15.00;63.60;;;;;;4945459;29;20102;-90
2021/04/02 12:47:03;;;;;;;5.95;1.88;;;15.10;63.70;;;;;;4961717;29;20039;-90
2021/04/02 12:49:29;;;;;;;6.97;1.98;;;15.00;63.20;;;;;;4945046;29;20484;-90
2021/04/02 12:51:54;;;;;;;8.68;2.05;;;15.00;63.50;;;;;;4960232;29;20038;-90
2021/04/02 12:54:20;;;;;;;6.78;2.30;;;15.00;63.20;;;;;;4942634;29;20028;-90
2021/04/02 12:56:46;;;;;;;3.92;1.70;;;14.90;63.20;;;;;;4960803;29;20106;-92
2021/04/02 12:59:12;;;;;;;3.90;1.50;;;15.10;63.50;;;;;;4945976;29;20039;-90
2021/04/02 13:01:38;;;;;;;3.63;1.73;;;15.30;63.00;;;;;;4962355;29;20135;-90
2021/04/02 13:04:04;;;;;;;3.30;1.60;;;15.60;62.30;;;;;;4960892;29;20101;-89
2021/04/02 13:06:29;;;;;;;6.85;1.77;;;15.80;61.30;;;;;;4961135;29;20023;-89
2021/04/02 13:08:55;;;;;;;7.10;1.80;;;15.90;61.70;;;;;;4944800;29;20039;-90